sensor_id;sensor_type;location;lat;lon;timestamp;temperature;humidity
15184;DHT22;7693;49.266;7.104;2023-02-18T05:42:38;10.50;99.90
15184;DHT22;7693;49.266;7.104;2023-02-18T05:45:03;10.50;99.90
15184;DHT22;7693;49.266;7.104;2023-02-18T05:47:29;10.50;99.90
15184;DHT22;7693;49.266;7.104;2023-02-18T05:49:55;10.50;99.90
15184;DHT22;7693;49.266;7.104;2023-02-18T05:52:20;10.60;99.90
15184;DHT22;7693;49.266;7.104;2023-02-18T05:54:46;10.60;99.90
15184;DHT22;7693;49.266;7.104;2023-02-18T05:57:13;10.70;99.90
15184;DHT22;7693;49.266;7.104;2023-02-18T05:59:39;10.70;99.90
15184;DHT22;7693;49.266;7.104;2023-02-18T06:02:05;10.70;99.90
15184;DHT22;7693;49.266;7.104;2023-02-18T06:04:30;10.70;99.90
15184;DHT22;7693;49.266;7.104;2023-02-18T06:06:56;10.70;99.90
15184;DHT22;7693;49.266;7.104;2023-02-18T06:09:22;10.70;99.90
15184;DHT22;7693;49.266;7.104;2023-02-18T06:11:48;10.80;99.90
15184;DHT22;7693;49.266;7.104;2023-02-18T06:14:13;10.80;99.90
15184;DHT22;7693;49.266;7.104;2023-02-18T06:16:39;10.80;99.90
15184;DHT22;7693;49.266;7.104;2023-02-18T06:19:04;10.80;99.90
15184;DHT22;7693;49.266;7.104;2023-02-18T06:21:30;10.80;99.90
15184;DHT22;7693;49.266;7.104;2023-02-18T06:23:56;10.80;99.90
15184;DHT22;7693;49.266;7.104;2023-02-18T06:26:21;10.90;99.90
15184;DHT22;7693;49.266;7.104;2023-02-18T06:28:47;10.90;99.90
15184;DHT22;7693;49.266;7.104;2023-02-18T06:31:13;10.80;99.90
15184;DHT22;7693;49.266;7.104;2023-02-18T06:33:38;10.90;99.90
15184;DHT22;7693;49.266;7.104;2023-02-18T06:36:06;10.90;99.90
15184;DHT22;7693;49.266;7.104;2023-02-18T06:38:33;10.90;99.90
15184;DHT22;7693;49.266;7.104;2023-02-18T06:40:59;10.90;99.90
15184;DHT22;7693;49.266;7.104;2023-02-18T06:43:24;10.90;99.90
15184;DHT22;7693;49.266;7.104;2023-02-18T06:45:50;10.90;99.90
15184;DHT22;7693;49.266;7.104;2023-02-18T06:48:16;10.90;99.90
15184;DHT22;7693;49.266;7.104;2023-02-18T06:50:42;10.90;99.90
15184;DHT22;7693;49.266;7.104;2023-02-18T06:53:08;10.90;99.90
15184;DHT22;7693;49.266;7.104;2023-02-18T06:55:33;10.90;99.90
15184;DHT22;7693;49.266;7.104;2023-02-18T06:57:59;10.90;99.90
15184;DHT22;7693;49.266;7.104;2023-02-18T07:00:24;10.90;99.90
15184;DHT22;7693;49.266;7.104;2023-02-18T07:02:50;10.90;99.90
15184;DHT22;7693;49.266;7.104;2023-02-18T07:05:16;10.90;99.90
15184;DHT22;7693;49.266;7.104;2023-02-18T07:07:41;10.90;99.90
15184;DHT22;7693;49.266;7.104;2023-02-18T07:10:08;10.90;99.90
15184;DHT22;7693;49.266;7.104;2023-02-18T07:12:33;10.90;99.90
15184;DHT22;7693;49.266;7.104;2023-02-18T07:14:59;10.90;99.90
15184;DHT22;7693;49.266;7.104;2023-02-18T07:17:25;10.90;99.90
15184;DHT22;7693;49.266;7.104;2023-02-18T07:19:50;10.90;99.90
15184;DHT22;7693;49.266;7.104;2023-02-18T07:22:16;10.90;99.90
15184;DHT22;7693;49.266;7.104;2023-02-18T07:24:42;10.90;99.90
15184;DHT22;7693;49.266;7.104;2023-02-18T07:27:07;10.90;99.90
15184;DHT22;7693;49.266;7.104;2023-02-18T07:29:33;10.90;99.90
15184;DHT22;7693;49.266;7.104;2023-02-18T07:31:58;10.80;99.90
15184;DHT22;7693;49.266;7.104;2023-02-18T07:34:24;10.80;99.90
15184;DHT22;7693;49.266;7.104;2023-02-18T07:36:50;10.80;99.90
15184;DHT22;7693;49.266;7.104;2023-02-18T07:39:15;10.80;99.90
15184;DHT22;7693;49.266;7.104;2023-02-18T07:41:45;10.80;99.90
15184;DHT22;7693;49.266;7.104;2023-02-18T07:44:11;10.80;99.90
15184;DHT22;7693;49.266;7.104;2023-02-18T07:46:39;10.80;99.90
15184;DHT22;7693;49.266;7.104;2023-02-18T07:49:05;10.80;99.90
15184;DHT22;7693;49.266;7.104;2023-02-18T07:51:31;10.80;99.90
15184;DHT22;7693;49.266;7.104;2023-02-18T07:53:56;10.80;99.90
15184;DHT22;7693;49.266;7.104;2023-02-18T07:56:22;10.80;99.90
15184;DHT22;7693;49.266;7.104;2023-02-18T07:58:48;10.80;99.90
15184;DHT22;7693;49.266;7.104;2023-02-18T08:01:14;10.80;99.90
15184;DHT22;7693;49.266;7.104;2023-02-18T08:03:40;10.80;99.90
15184;DHT22;7693;49.266;7.104;2023-02-18T08:06:06;10.80;99.90
15184;DHT22;7693;49.266;7.104;2023-02-18T08:08:33;10.80;99.90
15184;DHT22;7693;49.266;7.104;2023-02-18T08:11:00;10.80;99.90
15184;DHT22;7693;49.266;7.104;2023-02-18T08:13:28;10.80;99.90
15184;DHT22;7693;49.266;7.104;2023-02-18T08:15:57;10.80;99.90
15184;DHT22;7693;49.266;7.104;2023-02-18T08:18:24;10.80;99.90
15184;DHT22;7693;49.266;7.104;2023-02-18T08:20:50;10.80;99.90
15184;DHT22;7693;49.266;7.104;2023-02-18T08:23:18;10.80;99.90
15184;DHT22;7693;49.266;7.104;2023-02-18T08:25:51;10.80;99.90
15184;DHT22;7693;49.266;7.104;2023-02-18T08:28:19;10.80;99.90
15184;DHT22;7693;49.266;7.104;2023-02-18T08:30:46;10.90;99.90
15184;DHT22;7693;49.266;7.104;2023-02-18T08:33:12;10.80;99.90
15184;DHT22;7693;49.266;7.104;2023-02-18T08:35:38;10.80;99.90
15184;DHT22;7693;49.266;7.104;2023-02-18T08:38:04;10.80;99.90
15184;DHT22;7693;49.266;7.104;2023-02-18T08:40:29;10.90;99.90
15184;DHT22;7693;49.266;7.104;2023-02-18T08:42:55;10.80;99.90
15184;DHT22;7693;49.266;7.104;2023-02-18T08:45:21;10.90;99.90
15184;DHT22;7693;49.266;7.104;2023-02-18T08:47:47;10.90;99.90
15184;DHT22;7693;49.266;7.104;2023-02-18T08:50:12;10.80;99.90
15184;DHT22;7693;49.266;7.104;2023-02-18T08:52:38;10.90;99.90
15184;DHT22;7693;49.266;7.104;2023-02-18T08:55:04;10.80;99.90
15184;DHT22;7693;49.266;7.104;2023-02-18T08:57:30;10.90;99.90
15184;DHT22;7693;49.266;7.104;2023-02-18T08:59:56;10.90;99.90
15184;DHT22;7693;49.266;7.104;2023-02-18T09:02:21;10.90;99.90
15184;DHT22;7693;49.266;7.104;2023-02-18T09:04:47;10.90;99.90
15184;DHT22;7693;49.266;7.104;2023-02-18T09:07:12;10.90;99.90
15184;DHT22;7693;49.266;7.104;2023-02-18T09:09:38;10.90;99.90
15184;DHT22;7693;49.266;7.104;2023-02-18T09:12:04;10.90;99.90
15184;DHT22;7693;49.266;7.104;2023-02-18T09:14:29;10.90;99.90
15184;DHT22;7693;49.266;7.104;2023-02-18T09:16:56;10.90;99.90
15184;DHT22;7693;49.266;7.104;2023-02-18T09:19:22;10.90;99.90
15184;DHT22;7693;49.266;7.104;2023-02-18T09:21:48;10.90;99.90
15184;DHT22;7693;49.266;7.104;2023-02-18T09:24:14;11.00;99.90
15184;DHT22;7693;49.266;7.104;2023-02-18T09:26:39;11.00;99.90
15184;DHT22;7693;49.266;7.104;2023-02-18T09:29:05;11.00;99.90
15184;DHT22;7693;49.266;7.104;2023-02-18T09:31:31;11.00;99.90
15184;DHT22;7693;49.266;7.104;2023-02-18T09:34:00;11.00;99.90
15184;DHT22;7693;49.266;7.104;2023-02-18T09:36:26;11.00;99.90
15184;DHT22;7693;49.266;7.104;2023-02-18T09:38:52;11.00;99.90
15184;DHT22;7693;49.266;7.104;2023-02-18T09:41:51;11.00;99.90
15184;DHT22;7693;49.266;7.104;2023-02-18T09:44:30;11.00;99.90
15184;DHT22;7693;49.266;7.104;2023-02-18T09:47:02;11.00;99.90
15184;DHT22;7693;49.266;7.104;2023-02-18T09:49:31;11.00;99.90
15184;DHT22;7693;49.266;7.104;2023-02-18T09:52:13;11.00;99.90
15184;DHT22;7693;49.266;7.104;2023-02-18T09:54:40;11.00;99.90
15184;DHT22;7693;49.266;7.104;2023-02-18T09:57:14;10.90;99.90
15184;DHT22;7693;49.266;7.104;2023-02-18T09:59:42;10.90;99.90
15184;DHT22;7693;49.266;7.104;2023-02-18T10:02:13;10.90;99.90
15184;DHT22;7693;49.266;7.104;2023-02-18T10:04:44;10.90;99.90
15184;DHT22;7693;49.266;7.104;2023-02-18T10:07:21;10.90;99.90
15184;DHT22;7693;49.266;7.104;2023-02-18T10:09:49;10.90;99.90
15184;DHT22;7693;49.266;7.104;2023-02-18T10:12:22;10.90;99.90
15184;DHT22;7693;49.266;7.104;2023-02-18T10:14:59;10.90;99.90
15184;DHT22;7693;49.266;7.104;2023-02-18T10:17:30;10.90;99.90
15184;DHT22;7693;49.266;7.104;2023-02-18T10:19:58;10.90;99.90
15184;DHT22;7693;49.266;7.104;2023-02-18T10:22:25;10.90;99.90
15184;DHT22;7693;49.266;7.104;2023-02-18T10:25:03;10.90;99.90
15184;DHT22;7693;49.266;7.104;2023-02-18T10:27:32;10.90;99.90
15184;DHT22;7693;49.266;7.104;2023-02-18T10:30:23;10.90;99.90
15184;DHT22;7693;49.266;7.104;2023-02-18T10:32:54;10.90;99.90
15184;DHT22;7693;49.266;7.104;2023-02-18T10:35:30;10.90;99.90
15184;DHT22;7693;49.266;7.104;2023-02-18T10:43:14;10.90;99.90
15184;DHT22;7693;49.266;7.104;2023-02-18T10:45:57;10.90;99.90
15184;DHT22;7693;49.266;7.104;2023-02-18T10:51:28;10.90;99.90
15184;DHT22;7693;49.266;7.104;2023-02-18T10:53:55;10.90;99.90
15184;DHT22;7693;49.266;7.104;2023-02-18T10:56:46;10.90;99.90
15184;DHT22;7693;49.266;7.104;2023-02-18T10:59:17;11.00;99.90
15184;DHT22;7693;49.266;7.104;2023-02-18T11:01:44;11.00;99.90
15184;DHT22;7693;49.266;7.104;2023-02-18T11:04:18;11.00;99.90
15184;DHT22;7693;49.266;7.104;2023-02-18T11:06:47;11.00;99.90
15184;DHT22;7693;49.266;7.104;2023-02-18T11:09:32;11.00;99.90
15184;DHT22;7693;49.266;7.104;2023-02-18T11:12:02;11.10;99.90
15184;DHT22;7693;49.266;7.104;2023-02-18T14:10:40;11.30;99.90
15184;DHT22;7693;49.266;7.104;2023-02-18T14:13:46;11.20;99.90
15184;DHT22;7693;49.266;7.104;2023-02-18T14:16:11;11.20;99.90
15184;DHT22;7693;49.266;7.104;2023-02-18T14:31:28;11.20;99.90
15184;DHT22;7693;49.266;7.104;2023-02-18T14:45:23;11.20;99.90
15184;DHT22;7693;49.266;7.104;2023-02-18T14:50:42;11.20;99.90
15184;DHT22;7693;49.266;7.104;2023-02-18T14:53:14;11.20;99.90
15184;DHT22;7693;49.266;7.104;2023-02-18T14:55:45;11.20;99.90
15184;DHT22;7693;49.266;7.104;2023-02-18T14:58:45;11.20;99.90
15184;DHT22;7693;49.266;7.104;2023-02-18T15:01:20;11.20;99.90
15184;DHT22;7693;49.266;7.104;2023-02-18T15:03:47;11.20;99.90
15184;DHT22;7693;49.266;7.104;2023-02-18T15:06:34;11.20;99.90
15184;DHT22;7693;49.266;7.104;2023-02-18T15:09:20;11.10;99.90
15184;DHT22;7693;49.266;7.104;2023-02-18T15:14:31;11.10;99.90
15184;DHT22;7693;49.266;7.104;2023-02-18T15:16:58;11.00;99.90
15184;DHT22;7693;49.266;7.104;2023-02-18T15:19:26;11.00;99.90
15184;DHT22;7693;49.266;7.104;2023-02-18T15:21:54;11.00;99.90
15184;DHT22;7693;49.266;7.104;2023-02-18T15:24:31;10.90;99.90
15184;DHT22;7693;49.266;7.104;2023-02-18T15:27:23;10.80;99.90
15184;DHT22;7693;49.266;7.104;2023-02-18T15:29:50;10.80;99.90
15184;DHT22;7693;49.266;7.104;2023-02-18T15:32:19;10.70;99.90
15184;DHT22;7693;49.266;7.104;2023-02-18T15:34:49;10.60;99.90
15184;DHT22;7693;49.266;7.104;2023-02-18T15:37:15;10.60;99.90
15184;DHT22;7693;49.266;7.104;2023-02-18T15:39:42;10.60;99.90
15184;DHT22;7693;49.266;7.104;2023-02-18T15:42:25;10.60;99.90
15184;DHT22;7693;49.266;7.104;2023-02-18T15:44:56;10.60;99.90
15184;DHT22;7693;49.266;7.104;2023-02-18T15:47:22;10.50;99.90
15184;DHT22;7693;49.266;7.104;2023-02-18T15:49:51;10.50;99.90
15184;DHT22;7693;49.266;7.104;2023-02-18T15:52:26;10.50;99.90
15184;DHT22;7693;49.266;7.104;2023-02-18T15:54:52;10.50;99.90
15184;DHT22;7693;49.266;7.104;2023-02-18T15:57:23;10.50;99.90
15184;DHT22;7693;49.266;7.104;2023-02-18T16:00:10;10.50;99.90
15184;DHT22;7693;49.266;7.104;2023-02-18T16:02:53;10.50;99.90
15184;DHT22;7693;49.266;7.104;2023-02-18T16:05:24;10.50;99.90
15184;DHT22;7693;49.266;7.104;2023-02-18T16:07:55;10.60;99.90
15184;DHT22;7693;49.266;7.104;2023-02-18T16:12:58;10.60;99.90
15184;DHT22;7693;49.266;7.104;2023-02-18T16:15:36;10.60;99.90
15184;DHT22;7693;49.266;7.104;2023-02-18T16:18:03;10.60;99.90
15184;DHT22;7693;49.266;7.104;2023-02-18T16:20:36;10.60;99.90
15184;DHT22;7693;49.266;7.104;2023-02-18T16:23:13;10.60;99.90
15184;DHT22;7693;49.266;7.104;2023-02-18T16:25:46;10.60;99.90
15184;DHT22;7693;49.266;7.104;2023-02-18T16:28:30;10.60;99.90
15184;DHT22;7693;49.266;7.104;2023-02-18T16:30:56;10.60;99.90
15184;DHT22;7693;49.266;7.104;2023-02-18T16:33:22;10.60;99.90
15184;DHT22;7693;49.266;7.104;2023-02-18T16:35:48;10.60;99.90
15184;DHT22;7693;49.266;7.104;2023-02-18T16:38:20;10.60;99.90
15184;DHT22;7693;49.266;7.104;2023-02-18T16:40:46;10.60;99.90
15184;DHT22;7693;49.266;7.104;2023-02-18T16:43:23;10.60;99.90
15184;DHT22;7693;49.266;7.104;2023-02-18T16:45:54;10.50;99.90
15184;DHT22;7693;49.266;7.104;2023-02-18T16:48:26;10.50;99.90
15184;DHT22;7693;49.266;7.104;2023-02-18T16:50:53;10.50;99.90
15184;DHT22;7693;49.266;7.104;2023-02-18T16:53:19;10.50;99.90
15184;DHT22;7693;49.266;7.104;2023-02-18T16:55:45;10.50;99.90
15184;DHT22;7693;49.266;7.104;2023-02-18T16:58:11;10.40;99.90
15184;DHT22;7693;49.266;7.104;2023-02-18T17:00:37;10.50;99.90
15184;DHT22;7693;49.266;7.104;2023-02-18T17:03:04;10.40;99.90
15184;DHT22;7693;49.266;7.104;2023-02-18T17:05:32;10.50;99.90
15184;DHT22;7693;49.266;7.104;2023-02-18T17:08:22;10.40;99.90
15184;DHT22;7693;49.266;7.104;2023-02-18T17:10:50;10.40;99.90
15184;DHT22;7693;49.266;7.104;2023-02-18T17:13:18;10.40;99.90
15184;DHT22;7693;49.266;7.104;2023-02-18T17:15:45;10.40;99.90
15184;DHT22;7693;49.266;7.104;2023-02-18T17:18:11;10.40;99.90
15184;DHT22;7693;49.266;7.104;2023-02-18T17:20:37;10.40;99.90
15184;DHT22;7693;49.266;7.104;2023-02-18T17:23:02;10.40;99.90
15184;DHT22;7693;49.266;7.104;2023-02-18T17:25:39;10.40;99.90
15184;DHT22;7693;49.266;7.104;2023-02-18T17:28:05;10.40;99.90
15184;DHT22;7693;49.266;7.104;2023-02-18T17:30:34;10.40;99.90
15184;DHT22;7693;49.266;7.104;2023-02-18T17:33:00;10.40;99.90
15184;DHT22;7693;49.266;7.104;2023-02-18T17:35:26;10.40;99.90
15184;DHT22;7693;49.266;7.104;2023-02-18T17:37:52;10.40;99.90
15184;DHT22;7693;49.266;7.104;2023-02-18T17:40:20;10.40;99.90
15184;DHT22;7693;49.266;7.104;2023-02-18T17:42:46;10.40;99.90
15184;DHT22;7693;49.266;7.104;2023-02-18T17:45:28;10.40;99.90
15184;DHT22;7693;49.266;7.104;2023-02-18T17:47:57;10.40;99.90
15184;DHT22;7693;49.266;7.104;2023-02-18T17:50:24;10.40;99.90
15184;DHT22;7693;49.266;7.104;2023-02-18T17:52:49;10.30;99.90
15184;DHT22;7693;49.266;7.104;2023-02-18T17:55:19;10.40;99.90
15184;DHT22;7693;49.266;7.104;2023-02-18T17:57:45;10.40;99.90
15184;DHT22;7693;49.266;7.104;2023-02-18T18:00:13;10.40;99.90
15184;DHT22;7693;49.266;7.104;2023-02-18T18:02:39;10.30;99.90
15184;DHT22;7693;49.266;7.104;2023-02-18T18:05:05;10.30;99.90
15184;DHT22;7693;49.266;7.104;2023-02-18T18:07:31;10.30;99.90
15184;DHT22;7693;49.266;7.104;2023-02-18T18:09:56;10.40;99.90
15184;DHT22;7693;49.266;7.104;2023-02-18T18:12:22;10.30;99.90
15184;DHT22;7693;49.266;7.104;2023-02-18T18:14:47;10.30;99.90
15184;DHT22;7693;49.266;7.104;2023-02-18T18:17:13;10.30;99.90
15184;DHT22;7693;49.266;7.104;2023-02-18T18:19:39;10.30;99.90
15184;DHT22;7693;49.266;7.104;2023-02-18T18:22:06;10.30;99.90
15184;DHT22;7693;49.266;7.104;2023-02-18T18:24:32;10.30;99.90
15184;DHT22;7693;49.266;7.104;2023-02-18T18:26:58;10.20;99.90
15184;DHT22;7693;49.266;7.104;2023-02-18T18:29:24;10.20;99.90
15184;DHT22;7693;49.266;7.104;2023-02-18T18:31:49;10.20;99.90
15184;DHT22;7693;49.266;7.104;2023-02-18T18:34:15;10.20;99.90
15184;DHT22;7693;49.266;7.104;2023-02-18T18:36:41;10.20;99.90
15184;DHT22;7693;49.266;7.104;2023-02-18T18:39:07;10.20;99.90
15184;DHT22;7693;49.266;7.104;2023-02-18T18:41:33;10.20;99.90
15184;DHT22;7693;49.266;7.104;2023-02-18T18:43:59;10.20;99.90
15184;DHT22;7693;49.266;7.104;2023-02-18T18:46:24;10.20;99.90
15184;DHT22;7693;49.266;7.104;2023-02-18T18:48:50;10.20;99.90
15184;DHT22;7693;49.266;7.104;2023-02-18T18:51:26;10.20;99.90
15184;DHT22;7693;49.266;7.104;2023-02-18T18:53:52;10.20;99.90
15184;DHT22;7693;49.266;7.104;2023-02-18T18:56:18;10.10;99.90
15184;DHT22;7693;49.266;7.104;2023-02-18T18:58:43;10.20;99.90
15184;DHT22;7693;49.266;7.104;2023-02-18T19:01:15;10.10;99.90
15184;DHT22;7693;49.266;7.104;2023-02-18T19:03:42;10.10;99.90
15184;DHT22;7693;49.266;7.104;2023-02-18T19:06:11;10.10;99.90
15184;DHT22;7693;49.266;7.104;2023-02-18T19:08:37;10.10;99.90
15184;DHT22;7693;49.266;7.104;2023-02-18T19:11:03;10.10;99.90
15184;DHT22;7693;49.266;7.104;2023-02-18T19:13:30;10.10;99.90
15184;DHT22;7693;49.266;7.104;2023-02-18T19:16:06;10.10;99.90
15184;DHT22;7693;49.266;7.104;2023-02-18T19:18:32;10.10;99.90
15184;DHT22;7693;49.266;7.104;2023-02-18T19:20:59;10.10;99.90
15184;DHT22;7693;49.266;7.104;2023-02-18T19:23:29;10.10;99.90
15184;DHT22;7693;49.266;7.104;2023-02-18T19:25:56;10.10;99.90
15184;DHT22;7693;49.266;7.104;2023-02-18T19:28:21;10.00;99.90
15184;DHT22;7693;49.266;7.104;2023-02-18T19:30:47;10.00;99.90
15184;DHT22;7693;49.266;7.104;2023-02-18T19:33:14;10.00;99.90
15184;DHT22;7693;49.266;7.104;2023-02-18T19:35:41;10.00;99.90
15184;DHT22;7693;49.266;7.104;2023-02-18T19:38:11;10.00;99.90
15184;DHT22;7693;49.266;7.104;2023-02-18T19:40:37;10.00;99.90
15184;DHT22;7693;49.266;7.104;2023-02-18T19:43:04;10.00;99.90
15184;DHT22;7693;49.266;7.104;2023-02-18T19:45:30;10.00;99.90
15184;DHT22;7693;49.266;7.104;2023-02-18T19:47:57;10.00;99.90
15184;DHT22;7693;49.266;7.104;2023-02-18T19:50:24;10.00;99.90
15184;DHT22;7693;49.266;7.104;2023-02-18T19:52:54;10.00;99.90
15184;DHT22;7693;49.266;7.104;2023-02-18T19:55:20;10.00;99.90
15184;DHT22;7693;49.266;7.104;2023-02-18T19:57:46;10.00;99.90
15184;DHT22;7693;49.266;7.104;2023-02-18T20:00:13;10.00;99.90
15184;DHT22;7693;49.266;7.104;2023-02-18T20:02:40;9.90;99.90
15184;DHT22;7693;49.266;7.104;2023-02-18T20:05:08;9.90;99.90
15184;DHT22;7693;49.266;7.104;2023-02-18T20:07:34;9.90;99.90
15184;DHT22;7693;49.266;7.104;2023-02-18T20:10:02;9.90;99.90
15184;DHT22;7693;49.266;7.104;2023-02-18T20:12:27;9.90;99.90
15184;DHT22;7693;49.266;7.104;2023-02-18T20:14:53;9.90;99.90
15184;DHT22;7693;49.266;7.104;2023-02-18T20:17:19;9.90;99.90
15184;DHT22;7693;49.266;7.104;2023-02-18T20:19:44;9.90;99.90
15184;DHT22;7693;49.266;7.104;2023-02-18T20:22:11;9.90;99.90
15184;DHT22;7693;49.266;7.104;2023-02-18T20:24:37;9.90;99.90
15184;DHT22;7693;49.266;7.104;2023-02-18T20:27:06;9.90;99.90
15184;DHT22;7693;49.266;7.104;2023-02-18T20:29:33;9.90;99.90
15184;DHT22;7693;49.266;7.104;2023-02-18T20:31:59;9.90;99.90
15184;DHT22;7693;49.266;7.104;2023-02-18T20:34:25;9.90;99.90
15184;DHT22;7693;49.266;7.104;2023-02-18T20:36:51;9.90;99.90
15184;DHT22;7693;49.266;7.104;2023-02-18T20:39:17;9.90;99.90
15184;DHT22;7693;49.266;7.104;2023-02-18T20:41:45;9.90;99.90
15184;DHT22;7693;49.266;7.104;2023-02-18T20:44:11;9.80;99.90
15184;DHT22;7693;49.266;7.104;2023-02-18T20:46:37;9.80;99.90
15184;DHT22;7693;49.266;7.104;2023-02-18T20:49:04;9.80;99.90
15184;DHT22;7693;49.266;7.104;2023-02-18T20:51:31;9.80;99.90
15184;DHT22;7693;49.266;7.104;2023-02-18T20:53:57;9.80;99.90
15184;DHT22;7693;49.266;7.104;2023-02-18T20:56:22;9.80;99.90
15184;DHT22;7693;49.266;7.104;2023-02-18T20:58:48;9.80;99.90
15184;DHT22;7693;49.266;7.104;2023-02-18T21:01:15;9.80;99.90
15184;DHT22;7693;49.266;7.104;2023-02-18T21:03:41;9.80;99.90
15184;DHT22;7693;49.266;7.104;2023-02-18T21:06:12;9.80;99.90
15184;DHT22;7693;49.266;7.104;2023-02-18T21:08:39;9.80;99.90
15184;DHT22;7693;49.266;7.104;2023-02-18T21:11:16;9.80;99.90
15184;DHT22;7693;49.266;7.104;2023-02-18T21:13:43;9.80;99.90
15184;DHT22;7693;49.266;7.104;2023-02-18T21:16:09;9.70;99.90
15184;DHT22;7693;49.266;7.104;2023-02-18T21:18:34;9.80;99.90
15184;DHT22;7693;49.266;7.104;2023-02-18T21:21:02;9.70;99.90
15184;DHT22;7693;49.266;7.104;2023-02-18T21:23:27;9.70;99.90
15184;DHT22;7693;49.266;7.104;2023-02-18T21:25:59;9.70;99.90
15184;DHT22;7693;49.266;7.104;2023-02-18T21:28:25;9.70;99.90
15184;DHT22;7693;49.266;7.104;2023-02-18T21:30:51;9.70;99.90
15184;DHT22;7693;49.266;7.104;2023-02-18T21:33:16;9.70;99.90
15184;DHT22;7693;49.266;7.104;2023-02-18T21:35:42;9.70;99.90
15184;DHT22;7693;49.266;7.104;2023-02-18T21:38:08;9.70;99.90
15184;DHT22;7693;49.266;7.104;2023-02-18T21:40:35;9.70;99.90
15184;DHT22;7693;49.266;7.104;2023-02-18T21:43:00;9.70;99.90
15184;DHT22;7693;49.266;7.104;2023-02-18T21:45:26;9.70;99.90
15184;DHT22;7693;49.266;7.104;2023-02-18T21:47:54;9.70;99.90
15184;DHT22;7693;49.266;7.104;2023-02-18T21:50:22;9.60;99.90
15184;DHT22;7693;49.266;7.104;2023-02-18T21:52:48;9.60;99.90
15184;DHT22;7693;49.266;7.104;2023-02-18T21:55:14;9.60;99.90
15184;DHT22;7693;49.266;7.104;2023-02-18T21:57:39;9.60;99.90
15184;DHT22;7693;49.266;7.104;2023-02-18T22:00:05;9.60;99.90
15184;DHT22;7693;49.266;7.104;2023-02-18T22:02:34;9.60;99.90
15184;DHT22;7693;49.266;7.104;2023-02-18T22:05:00;9.60;99.90
15184;DHT22;7693;49.266;7.104;2023-02-18T22:07:28;9.60;99.90
15184;DHT22;7693;49.266;7.104;2023-02-18T22:09:54;9.50;99.90
15184;DHT22;7693;49.266;7.104;2023-02-18T22:12:21;9.60;99.90
15184;DHT22;7693;49.266;7.104;2023-02-18T22:14:46;9.60;99.90
15184;DHT22;7693;49.266;7.104;2023-02-18T22:17:13;9.60;99.90
15184;DHT22;7693;49.266;7.104;2023-02-18T22:19:38;9.60;99.90
15184;DHT22;7693;49.266;7.104;2023-02-18T22:22:04;9.60;99.90
15184;DHT22;7693;49.266;7.104;2023-02-18T22:24:30;9.60;99.90
15184;DHT22;7693;49.266;7.104;2023-02-18T22:26:56;9.60;99.90
15184;DHT22;7693;49.266;7.104;2023-02-18T22:29:23;9.60;99.90
15184;DHT22;7693;49.266;7.104;2023-02-18T22:31:48;9.60;99.90
15184;DHT22;7693;49.266;7.104;2023-02-18T22:34:15;9.50;99.90
15184;DHT22;7693;49.266;7.104;2023-02-18T22:36:41;9.50;99.90
15184;DHT22;7693;49.266;7.104;2023-02-18T22:39:07;9.50;99.90
15184;DHT22;7693;49.266;7.104;2023-02-18T22:41:35;9.50;99.90
15184;DHT22;7693;49.266;7.104;2023-02-18T22:44:03;9.50;99.90
